x

Frying Pan Shoals, Nc Buoy (41013) Wave Buoy

5:50 - Wed 6th May 2015 All times are EDT. -4 hours from GMT.

  • Sig Wave height 4.6ft
  • Swell Direction
  • Peak Period 7s
  • Average Period 5s
  • Wind
    11mph, 16mph gusts
  • Sea Temp 71°f
  • Air Temp 73°f
  • Sea Pressure 1022.8mb
  • Frying Pan Shoals, Nc Buoy
  • Frying Pan Shoals, Nc Buoy

More Historic Weather Station data

Upgrade to MSW Pro to gain access to the past 30 days of data for over 8000 Wavebouys and Weather Stations around the globe.

Join Pro

Comparision Forecast

View Surf forecast
   
mer. 05/06 5:50 4.5ft 7s 5s 11 16 mph 1022.8mb 71f 73f
4:50 5ft 7s 5s 11 13 mph 1023.1mb 71f 73f
3:50 5ft 7s 5s 11 13 mph 1023.7mb 71f 73f
2:50 4.5ft 7s 5s 11 13 mph 1024mb 71f 73f
1:50 4.5ft 7s 6s 11 13 mph 1024.6mb 71f 73f
12:50 4ft 7s 6s 9 11 mph 1025.2mb 72f 73f
mar. 05/05 11:50 3.5ft 6s 5s 9 11 mph 1025.3mb 72f 73f
10:50 3.5ft 6s 5s 11 13 mph 1025.8mb 72f 73f
9:50 3.5ft 6s 5s 11 13 mph 1025.6mb 72f 73f
8:50 3.5ft 6s 5s 11 13 mph 1025.4mb 72f 73f
7:50 3.5ft 6s 5s 9 11 mph 1025.5mb 72f 73f
6:50 3ft 5s 5s 11 13 mph 1025.6mb 72f 73f
5:50 3ft 6s 5s 11
mph
1026.1mb 72f 73f
4:50 3ft 5s 5s 9 11 mph 1026.3mb 72f 73f
3:50 3.5ft 5s 5s 11
mph
1026.9mb 72f 73f
2:50 3ft 5s 5s 11 13 mph 1027.3mb 72f 73f
1:50 3ft 5s 5s 9 11 mph 1028.3mb 72f 73f
12:50 3.5ft 6s 5s 11 13 mph 1028.5mb 72f 72f
11:50 3.5ft 6s 5s 11 13 mph 1028.6mb 72f 72f
10:50 3.5ft 6s 5s 11 13 mph 1028.5mb 71f 72f
9:50 3ft 6s 5s 9 11 mph 1028.2mb 71f 72f
8:50 3.5ft 6s 5s 11
mph
1028.2mb 71f 73f
7:50 3.5ft 5s 5s 9 13 mph 1027.9mb 71f 73f
6:50 3.5ft 6s 5s 11 13 mph 1027.5mb 71f 72f
5:50 4ft 5s 5s 11 13 mph 1027.2mb 71f 72f
4:50 4ft 6s 5s 11 13 mph 1027.1mb 71f 72f
3:50 4ft 5s 5s 13 16 mph 1027.2mb 71f 72f
2:50 4ft 5s 5s 13 18 mph 1027.3mb 71f 73f
1:50 3.5ft 9s 5s 13 16 mph 1028.1mb 71f 73f
12:50 3.5ft 5s 5s 16 20 mph 1028.2mb 72f 73f
lun. 05/04 11:50 3.5ft 8s 5s 16 18 mph 1028mb 72f 74f
10:50 3.5ft 9s 5s 13 16 mph 1028.2mb 73f 74f
9:50 3ft 10s 5s 13 16 mph 1028.2mb 73f 74f
8:50 3ft 10s 5s 11 16 mph 1027.7mb 73f 74f
7:50 3ft 9s 5s 11 13 mph 1027.1mb 73f 74f
6:50 2.5ft 10s 5s 11 13 mph 1027.2mb 73f 75f
5:50 2.5ft 10s 5s 11 13 mph 1027.3mb 73f 75f
4:50 3ft 9s 5s 11
mph
1027.5mb 73f 74f
3:50 3ft 10s 5s 9 11 mph 1027.9mb 72f 74f
2:50 3ft 9s 5s 9 11 mph 1028.4mb 72f 74f
1:50 3ft 10s 6s 11 13 mph 1028.7mb 72f 74f
12:50 3ft 10s 6s 9 11 mph 1028.8mb 72f 72f
11:50 2.5ft 10s 6s 7
mph
1028.8mb 72f 72f
10:50 3ft 9s 6s 2 7 mph 1028.7mb 72f 74f
9:50 3ft 12s 6s 7
mph
1028.2mb 72f 74f
8:50 3.5ft 9s 7s 7 9 mph 1027.6mb 72f 73f
7:50 3ft 10s 6s 7
mph
1027.2mb 72f 73f
6:50 3ft 13s 6s 7 9 mph 1026.1mb 72f 73f
5:50 3ft 10s 7s 9 11 mph 1025.2mb 72f 73f
4:50 3ft 11s 7s 9 11 mph 1024.7mb 72f 73f
3:50 3.5ft 13s 7s 4 7 mph 1024.7mb 72f 73f
2:50 3.5ft 11s 7s 4 7 mph 1024.8mb 72f 73f
1:50 3.5ft 11s 7s 7
mph
1025.1mb 72f 73f
12:50 3.5ft 11s 7s 9
mph
1025.2mb 72f 73f
dim. 05/03 11:50 3.5ft 11s 7s 9 11 mph 1025.2mb 73f 74f
10:50 3.5ft 13s 8s 11 13 mph 1025mb 73f 73f
9:50 3.5ft 14s  -  11 13 mph 1024.5mb 73f 73f
8:50 3.5ft 11s 8s 9 11 mph 1023.8mb 73f 73f
7:50 3.5ft 13s 8s 7 9 mph 1023.4mb 74f 73f
6:50 3.5ft 12s 8s 4 7 mph 1023.1mb 74f 73f
5:50 3.5ft 8s 7s 4 7 mph 1023mb 75f 73f
4:50 4ft 10s 7s 4 7 mph 1022.9mb 75f 73f
3:50 4ft 8s 7s 2 4 mph 1023.2mb 77f 73f
2:50 4ft 10s 7s  -  2 mph 1023.6mb 75f 72f
1:50 4.5ft 10s 7s  -  2 mph 1023.8mb 74f 71f
12:50 4.5ft 10s 7s 2
mph
1024mb 73f 71f
11:50 4ft 10s 7s 2 4 mph 1024.1mb 72f 70f
10:50 3.5ft 10s 7s 4
mph
1023.7mb 71f 70f
9:50 3.5ft 8s 7s 4 7 mph 1023.1mb 71f 69f
8:50 4ft 9s 7s 7 9 mph 1022.5mb 71f 69f
7:50 3.5ft 9s 7s 4 7 mph 1022mb 71f 69f
6:50 3.5ft 11s 7s 7 9 mph 1021.2mb 71f 68f
5:50 3.5ft 9s 6s 4 9 mph 1020.6mb 70f 69f
4:50 3.5ft 9s 6s 4 7 mph 1020.3mb 70f 69f
3:50 3.5ft 9s 6s 9
mph
1020mb 70f 69f
2:50 3.5ft 9s 7s 7 11 mph 1020.1mb 70f 69f
1:50 3ft 10s 6s 4 7 mph 1020.4mb 71f 69f
12:50 3ft 9s 6s  -  2 mph 1020.7mb 71f 69f
sam. 05/02 11:50 3.5ft 8s 6s  -  2 mph 1020.5mb 71f 69f
10:50 3.5ft 8s 6s 2
mph
1020.2mb 72f 69f
9:50 3.5ft 9s 6s  -  2 mph 1019.5mb 72f 69f
8:50 3.5ft 9s 6s  -  2 mph 1018.6mb 72f 69f
7:50 3.5ft 7s 6s  -  2 mph 1018mb 72f 68f
6:50 3.5ft 10s 6s 2 4 mph 1017.6mb 71f 69f
5:50 3.5ft 7s 6s 4 7 mph 1017.4mb 71f 68f
4:50 3.5ft 6s 6s 4 7 mph 1017.3mb 71f 67f
3:50 3.5ft 7s 6s 4 7 mph 1017.4mb 71f 66f
2:50 3.5ft 6s 6s 4 7 mph 1018.1mb 71f 65f
1:50 3.5ft 6s 6s 4 7 mph 1018.3mb 71f 64f
12:50 4ft 7s 5s 7 11 mph 1018.3mb 71f 63f
11:50 4.5ft 6s 5s 9
mph
1018.3mb 70f 63f